createdAt,value
2022-10-19T00:01:56.667Z,12.63
2022-10-19T00:04:23.102Z,12.80
2022-10-19T00:06:49.414Z,15.40
2022-10-19T00:09:18.564Z,15.13
2022-10-19T00:11:47.486Z,14.13
2022-10-19T00:14:17.714Z,12.23
2022-10-19T00:16:45.744Z,14.77
2022-10-19T00:19:15.941Z,13.33
2022-10-19T00:21:42.398Z,16.27
2022-10-19T00:24:08.654Z,13.33
2022-10-19T00:26:35.250Z,14.20
2022-10-19T00:29:01.629Z,18.43
2022-10-19T00:31:28.009Z,17.07
2022-10-19T00:33:57.068Z,14.03
2022-10-19T00:36:27.663Z,14.47
2022-10-19T00:38:55.152Z,13.87
2022-10-19T00:41:27.877Z,13.30
2022-10-19T00:48:27.336Z,14.33
2022-10-19T00:50:56.276Z,14.47
2022-10-19T00:53:24.050Z,14.47
2022-10-19T00:55:50.525Z,13.33
2022-10-19T00:58:16.679Z,11.20
2022-10-19T01:00:43.115Z,14.43
2022-10-19T01:03:11.176Z,13.83
2022-10-19T01:05:38.517Z,11.97
2022-10-19T01:08:06.997Z,10.93
2022-10-19T01:11:01.206Z,11.27
2022-10-19T01:13:43.265Z,12.87
2022-10-19T01:16:44.360Z,12.47
2022-10-19T01:19:35.234Z,13.57
2022-10-19T01:22:22.092Z,14.20
2022-10-19T01:25:33.575Z,11.67
2022-10-19T01:27:59.804Z,13.00
2022-10-19T01:30:41.076Z,12.10
2022-10-19T01:33:21.228Z,11.30
2022-10-19T01:36:13.785Z,13.80
2022-10-19T01:38:51.796Z,11.67
2022-10-19T01:41:47.078Z,12.37
2022-10-19T01:44:21.563Z,11.43
2022-10-19T01:47:04.223Z,9.20
2022-10-19T01:49:49.454Z,12.80
2022-10-19T01:52:19.955Z,9.83
2022-10-19T01:54:53.834Z,11.57
2022-10-19T01:57:27.777Z,8.40
2022-10-19T01:59:56.864Z,10.07
2022-10-19T02:02:26.268Z,13.47
2022-10-19T02:04:54.676Z,11.30
2022-10-19T02:07:22.206Z,11.13
2022-10-19T02:09:48.686Z,9.93
2022-10-19T02:12:16.166Z,10.57
2022-10-19T02:14:49.155Z,8.63
2022-10-19T02:17:20.426Z,10.93
2022-10-19T02:19:46.963Z,10.87
2022-10-19T02:22:13.506Z,12.83
2022-10-19T02:24:40.519Z,12.60
2022-10-19T02:27:08.014Z,8.43
2022-10-19T02:29:36.490Z,10.80
2022-10-19T02:32:03.823Z,9.43
2022-10-19T02:34:30.941Z,8.63
2022-10-19T02:36:57.429Z,9.70
2022-10-19T02:39:24.222Z,11.43
2022-10-19T02:42:18.655Z,9.17
2022-10-19T02:45:07.518Z,12.43
2022-10-19T02:47:38.065Z,11.50
2022-10-19T02:50:07.212Z,11.37
2022-10-19T02:52:35.618Z,9.37
2022-10-19T02:55:01.966Z,9.50
2022-10-19T02:57:28.237Z,9.63
2022-10-19T02:59:54.606Z,8.60
2022-10-19T03:02:20.718Z,9.70
2022-10-19T03:07:20.303Z,10.67
2022-10-19T03:09:47.060Z,8.93
2022-10-19T03:12:13.826Z,10.43
2022-10-19T03:14:40.310Z,7.83
2022-10-19T03:17:06.510Z,9.83
2022-10-19T03:19:34.750Z,9.00
2022-10-19T03:22:01.077Z,11.17
2022-10-19T03:24:29.757Z,8.50
2022-10-19T03:26:56.273Z,7.77
2022-10-19T03:29:22.817Z,12.23
2022-10-19T03:31:49.295Z,6.63
2022-10-19T03:34:15.806Z,9.30
2022-10-19T03:36:42.197Z,7.83
2022-10-19T03:39:13.927Z,8.70
2022-10-19T03:41:40.651Z,7.53
2022-10-19T03:44:08.875Z,7.30
2022-10-19T03:46:35.779Z,9.70
2022-10-19T03:49:03.472Z,11.17
2022-10-19T03:51:31.024Z,6.83
2022-10-19T03:54:00.050Z,10.40
2022-10-19T03:56:28.409Z,8.83
2022-10-19T03:58:56.496Z,6.40
2022-10-19T04:01:26.282Z,8.93
2022-10-19T04:04:01.140Z,7.37
2022-10-19T04:06:30.395Z,9.33
2022-10-19T04:08:57.404Z,8.23
2022-10-19T04:11:26.864Z,9.23
2022-10-19T04:13:54.858Z,8.90
2022-10-19T04:16:23.141Z,9.40
2022-10-19T04:18:50.180Z,9.17
2022-10-19T04:21:26.182Z,4.20
2022-10-19T04:23:56.550Z,8.33
2022-10-19T04:26:22.720Z,5.50
2022-10-19T04:28:49.190Z,6.10
2022-10-19T04:31:15.568Z,3.60
2022-10-19T04:33:42.229Z,11.10
2022-10-19T04:36:10.776Z,6.93
2022-10-19T04:38:37.904Z,6.27
2022-10-19T04:41:07.265Z,7.33
2022-10-19T04:43:34.335Z,7.23
2022-10-19T04:46:09.303Z,7.33
2022-10-19T04:48:38.092Z,10.67
2022-10-19T04:51:04.605Z,6.07
2022-10-19T04:53:32.391Z,5.63
2022-10-19T04:55:58.755Z,6.27
2022-10-19T04:58:26.429Z,4.43
2022-10-19T05:00:52.650Z,4.53
2022-10-19T05:03:19.382Z,7.80
2022-10-19T05:05:45.521Z,8.73
2022-10-19T05:08:11.922Z,7.30
2022-10-19T05:10:38.218Z,4.73
2022-10-19T05:13:05.028Z,7.87
2022-10-19T05:15:32.264Z,7.00
2022-10-19T05:17:58.970Z,6.03
2022-10-19T05:20:25.356Z,5.33
2022-10-19T05:22:52.011Z,5.67
2022-10-19T05:25:18.379Z,6.43
2022-10-19T05:27:45.367Z,4.63
2022-10-19T05:30:13.666Z,8.90
2022-10-19T05:32:40.307Z,4.73
2022-10-19T05:35:06.731Z,5.73
2022-10-19T05:37:33.536Z,8.37
2022-10-19T05:40:02.578Z,7.93
2022-10-19T05:42:29.048Z,5.83
2022-10-19T05:44:55.469Z,6.00
2022-10-19T05:47:21.824Z,4.40
2022-10-19T05:49:47.984Z,5.03
2022-10-19T05:52:16.939Z,4.37
2022-10-19T05:54:43.125Z,3.97
2022-10-19T05:57:09.601Z,6.37
2022-10-19T05:59:35.828Z,7.50
2022-10-19T06:02:02.942Z,7.47
2022-10-19T06:04:29.222Z,11.47
2022-10-19T06:06:55.812Z,3.67
2022-10-19T06:09:22.424Z,6.23
2022-10-19T06:11:48.942Z,3.80
2022-10-19T06:14:15.857Z,11.23
2022-10-19T06:16:45.086Z,6.23
2022-10-19T06:19:11.392Z,2.23
2022-10-19T06:21:40.655Z,5.10
2022-10-19T06:24:10.714Z,3.93
2022-10-19T06:26:37.256Z,3.63
2022-10-19T06:29:04.214Z,3.87
2022-10-19T06:31:33.366Z,5.33
2022-10-19T06:34:00.118Z,6.67
2022-10-19T06:36:29.122Z,3.37
2022-10-19T06:38:59.300Z,5.00
2022-10-19T06:41:25.826Z,4.10
2022-10-19T06:43:53.653Z,4.27
2022-10-19T06:46:22.625Z,3.73
2022-10-19T06:48:57.648Z,4.10
2022-10-19T06:51:25.707Z,4.37
2022-10-19T06:53:56.531Z,1.70
2022-10-19T06:56:25.523Z,3.07
2022-10-19T06:58:52.093Z,5.13
2022-10-19T07:01:18.605Z,6.20
2022-10-19T07:03:45.000Z,2.27
2022-10-19T07:06:12.875Z,3.97
2022-10-19T07:08:41.035Z,1.87
2022-10-19T07:11:15.449Z,2.83
2022-10-19T07:13:41.947Z,3.60
2022-10-19T07:16:17.779Z,4.47
2022-10-19T07:18:52.210Z,3.00
2022-10-19T07:21:20.576Z,3.30
2022-10-19T07:23:47.837Z,4.27
2022-10-19T07:26:22.502Z,1.97
2022-10-19T07:28:49.820Z,8.23
2022-10-19T07:31:22.285Z,3.23
2022-10-19T07:33:59.408Z,4.73
2022-10-19T07:36:27.485Z,3.97
2022-10-19T07:38:54.760Z,3.97
2022-10-19T07:41:23.178Z,3.80
2022-10-19T07:43:50.565Z,5.53
2022-10-19T07:46:24.573Z,4.00
2022-10-19T07:48:51.392Z,5.60
2022-10-19T07:51:19.382Z,6.00
2022-10-19T07:53:45.746Z,3.23
2022-10-19T07:56:15.413Z,4.20
2022-10-19T07:58:42.326Z,3.57
2022-10-19T08:01:12.049Z,4.00
2022-10-19T08:06:25.589Z,4.13
2022-10-19T08:08:52.820Z,6.07
2022-10-19T08:11:28.556Z,4.40
2022-10-19T08:13:58.151Z,6.00
2022-10-19T08:16:32.268Z,5.03
2022-10-19T08:19:04.826Z,3.87
2022-10-19T08:21:31.309Z,4.70
2022-10-19T08:23:58.265Z,5.93
2022-10-19T08:26:29.103Z,6.33
2022-10-19T08:29:04.818Z,5.07
2022-10-19T08:31:31.606Z,2.70
2022-10-19T08:33:58.250Z,6.53
2022-10-19T08:36:25.402Z,4.90
2022-10-19T08:38:51.684Z,4.13
2022-10-19T08:41:24.112Z,4.50
2022-10-19T08:44:21.232Z,8.50
2022-10-19T08:47:13.336Z,5.67
2022-10-19T08:49:41.073Z,5.60
2022-10-19T08:52:17.152Z,3.50
2022-10-19T08:54:49.124Z,2.17
2022-10-19T08:57:31.894Z,3.93
2022-10-19T09:00:18.527Z,3.83
2022-10-19T09:03:03.593Z,2.80
2022-10-19T09:05:46.027Z,3.73
2022-10-19T09:08:17.616Z,2.63
2022-10-19T09:10:48.438Z,3.37
2022-10-19T09:13:41.486Z,5.20
2022-10-19T09:16:20.593Z,3.63
2022-10-19T09:18:48.816Z,3.23
2022-10-19T09:21:25.831Z,2.70
2022-10-19T09:24:11.851Z,9.33
2022-10-19T09:26:57.453Z,5.00
2022-10-19T09:29:39.761Z,1.87
2022-10-19T09:32:13.763Z,1.80
2022-10-19T09:34:45.587Z,4.20
2022-10-19T09:37:18.832Z,3.33
2022-10-19T09:39:54.078Z,3.07
2022-10-19T09:42:32.567Z,3.60
2022-10-19T09:45:01.445Z,3.30
2022-10-19T09:47:38.432Z,4.07
2022-10-19T09:50:16.955Z,5.63
2022-10-19T09:52:45.483Z,5.63
2022-10-19T09:55:24.329Z,4.53
2022-10-19T09:57:59.035Z,3.57
2022-10-19T10:00:34.661Z,3.33
2022-10-19T10:03:01.072Z,3.87
2022-10-19T10:05:38.872Z,2.63
2022-10-19T10:08:14.324Z,2.07
2022-10-19T10:10:48.394Z,3.80
2022-10-19T10:13:23.165Z,2.00
2022-10-19T10:15:55.807Z,2.83
2022-10-19T10:18:24.266Z,3.97
2022-10-19T10:20:58.655Z,3.00
2022-10-19T10:23:28.208Z,2.57
2022-10-19T10:25:56.723Z,1.87
2022-10-19T10:28:28.688Z,4.43
2022-10-19T10:30:59.590Z,2.53
2022-10-19T10:33:40.743Z,4.17
2022-10-19T10:36:11.920Z,3.73
2022-10-19T10:38:46.367Z,3.13
2022-10-19T10:41:19.507Z,2.53
2022-10-19T10:43:54.494Z,2.07
2022-10-19T10:46:26.001Z,2.70
2022-10-19T10:49:07.604Z,1.37
2022-10-19T10:51:39.746Z,4.53
2022-10-19T10:54:17.676Z,4.97
2022-10-19T10:56:59.349Z,3.67
2022-10-19T10:59:51.179Z,2.27
2022-10-19T11:02:36.655Z,4.03
2022-10-19T11:05:22.229Z,3.37
2022-10-19T11:07:53.950Z,2.30
2022-10-19T11:10:29.451Z,1.73
2022-10-19T11:13:20.842Z,3.00
2022-10-19T11:15:56.981Z,1.90
2022-10-19T11:18:36.336Z,3.63
2022-10-19T11:21:21.056Z,1.87
2022-10-19T11:24:01.612Z,3.13
2022-10-19T11:26:40.073Z,1.60
2022-10-19T11:29:18.499Z,1.70
2022-10-19T11:31:51.102Z,3.20
2022-10-19T11:34:37.831Z,2.40
2022-10-19T11:37:50.260Z,1.60
2022-10-19T11:40:45.800Z,2.43
2022-10-19T11:43:47.736Z,0.67
2022-10-19T11:46:23.167Z,2.07
2022-10-19T11:49:20.379Z,2.00
2022-10-19T11:51:51.343Z,2.77
2022-10-19T11:54:35.967Z,0.97
2022-10-19T11:57:18.830Z,0.80
2022-10-19T12:00:03.832Z,1.03
2022-10-19T12:02:49.578Z,2.43
2022-10-19T12:05:15.966Z,5.23
2022-10-19T12:08:01.007Z,9.47
2022-10-19T12:10:59.149Z,2.10
2022-10-19T12:13:34.262Z,0.57
2022-10-19T12:16:01.358Z,0.73
2022-10-19T12:18:43.056Z,1.17
2022-10-19T12:21:24.100Z,0.97
2022-10-19T12:23:51.462Z,1.60
2022-10-19T12:26:20.985Z,3.37
2022-10-19T12:28:53.988Z,4.37
2022-10-19T12:31:22.715Z,13.17
2022-10-19T12:34:09.838Z,1.10
2022-10-19T12:37:06.585Z,1.43
2022-10-19T12:39:51.541Z,1.47
2022-10-19T12:42:41.479Z,1.87
2022-10-19T12:45:29.731Z,1.40
2022-10-19T12:48:19.100Z,1.90
2022-10-19T12:50:48.699Z,1.73
2022-10-19T12:56:02.995Z,3.67
2022-10-19T12:58:47.682Z,2.13
2022-10-19T13:01:20.512Z,2.03
2022-10-19T13:03:50.848Z,1.67
2022-10-19T13:06:30.195Z,2.07
2022-10-19T13:09:00.406Z,5.53
2022-10-19T13:11:27.119Z,1.63
2022-10-19T13:13:56.514Z,1.50
2022-10-19T13:16:29.125Z,2.00
2022-10-19T13:18:58.389Z,4.03
2022-10-19T13:21:54.202Z,2.57
2022-10-19T13:24:23.715Z,1.93
2022-10-19T13:27:02.457Z,1.50
2022-10-19T13:29:38.096Z,1.87
2022-10-19T13:32:36.853Z,1.20
2022-10-19T13:35:22.364Z,1.10
2022-10-19T13:38:14.411Z,1.50
2022-10-19T13:40:49.026Z,1.57
2022-10-19T13:43:37.879Z,1.23
2022-10-19T13:46:09.168Z,0.70
2022-10-19T13:48:44.803Z,4.67
2022-10-19T13:51:47.763Z,1.50
2022-10-19T13:54:26.276Z,2.60
2022-10-19T13:57:05.997Z,1.90
2022-10-19T13:59:41.537Z,1.33
2022-10-19T14:02:26.204Z,2.00
2022-10-19T14:05:07.311Z,2.13
2022-10-19T14:07:51.575Z,3.73
2022-10-19T14:10:22.714Z,3.27
2022-10-19T14:12:56.090Z,5.30
2022-10-19T14:15:27.443Z,1.30
2022-10-19T14:17:54.392Z,1.73
2022-10-19T14:20:33.535Z,2.27
2022-10-19T14:23:24.165Z,0.93
2022-10-19T14:25:57.148Z,2.10
2022-10-19T14:28:24.307Z,2.27
2022-10-19T14:30:55.091Z,2.57
2022-10-19T14:33:21.554Z,3.50
2022-10-19T14:35:50.039Z,1.73
2022-10-19T14:38:37.722Z,4.07
2022-10-19T14:41:05.984Z,4.27
2022-10-19T14:43:34.034Z,1.13
2022-10-19T14:46:09.516Z,0.73
2022-10-19T14:48:41.501Z,2.07
2022-10-19T14:51:28.912Z,1.20
2022-10-19T14:53:58.518Z,3.40
2022-10-19T14:56:50.615Z,2.07
2022-10-19T14:59:26.059Z,2.00
2022-10-19T15:01:56.373Z,1.50
2022-10-19T15:04:33.646Z,3.00
2022-10-19T15:07:04.281Z,4.07
2022-10-19T15:09:47.846Z,1.70
2022-10-19T15:12:19.832Z,1.97
2022-10-19T15:14:47.198Z,2.77
2022-10-19T15:17:24.002Z,1.67
2022-10-19T15:19:51.409Z,1.23
2022-10-19T15:22:36.241Z,2.23
2022-10-19T15:25:05.543Z,5.43
2022-10-19T15:27:45.428Z,2.20
2022-10-19T15:30:28.564Z,4.17
2022-10-19T15:33:01.510Z,5.17
2022-10-19T15:35:36.781Z,1.60
2022-10-19T15:38:21.486Z,2.30
2022-10-19T15:40:48.728Z,2.20
2022-10-19T15:43:30.333Z,2.77
2022-10-19T15:46:12.665Z,1.47
2022-10-19T15:48:46.458Z,1.67
2022-10-19T15:51:24.951Z,2.60
2022-10-19T15:53:53.529Z,2.33
2022-10-19T15:56:20.405Z,3.87
2022-10-19T15:58:53.526Z,4.10
2022-10-19T16:01:22.194Z,20.87
2022-10-19T16:03:49.453Z,5.50
2022-10-19T16:06:17.392Z,19.60
2022-10-19T16:08:45.592Z,6.87
2022-10-19T16:11:14.167Z,7.47
2022-10-19T16:13:41.024Z,3.80
2022-10-19T16:16:17.701Z,5.37
2022-10-19T16:18:44.209Z,57.77
2022-10-19T16:21:10.416Z,16.83
2022-10-19T16:23:41.862Z,30.77
2022-10-19T16:26:12.831Z,7.40
2022-10-19T16:28:39.678Z,12.47
2022-10-19T16:31:05.934Z,11.07
2022-10-19T16:33:32.770Z,9.13
2022-10-19T16:35:59.204Z,10.77
2022-10-19T16:38:25.886Z,12.30
2022-10-19T16:40:52.130Z,9.93
2022-10-19T16:43:18.550Z,9.97
2022-10-19T16:45:44.868Z,11.43
2022-10-19T16:48:11.786Z,15.77
2022-10-19T16:50:38.011Z,10.53
2022-10-19T16:53:11.916Z,11.30
2022-10-19T16:55:39.976Z,11.70
2022-10-19T16:58:07.179Z,21.80
2022-10-19T17:00:34.861Z,57.47
2022-10-19T17:03:01.566Z,19.37
2022-10-19T17:05:28.468Z,21.37
2022-10-19T17:07:55.151Z,30.03
2022-10-19T17:10:21.563Z,34.83
2022-10-19T17:12:48.292Z,58.90
2022-10-19T17:15:44.655Z,49.47
2022-10-19T17:18:01.432Z,31.53
2022-10-19T17:20:29.806Z,30.00
2022-10-19T17:22:56.802Z,23.80
2022-10-19T17:25:23.284Z,25.17
2022-10-19T17:27:50.877Z,25.77
2022-10-19T17:30:17.537Z,24.20
2022-10-19T17:32:44.158Z,50.97
2022-10-19T17:35:10.405Z,79.53
2022-10-19T17:37:38.478Z,65.83
2022-10-19T17:40:06.135Z,39.27
2022-10-19T17:42:36.038Z,23.50
2022-10-19T17:45:02.538Z,21.93
2022-10-19T17:47:29.798Z,28.40
2022-10-19T17:49:55.966Z,22.87
2022-10-19T17:52:22.361Z,14.60
2022-10-19T17:55:11.271Z,20.63
2022-10-19T17:57:36.161Z,13.07
2022-10-19T18:00:05.325Z,11.13
2022-10-19T18:02:39.981Z,10.93
2022-10-19T18:05:09.745Z,9.93
2022-10-19T18:07:36.775Z,8.60
2022-10-19T18:10:03.637Z,10.80
2022-10-19T18:12:30.268Z,9.67
2022-10-19T18:14:56.465Z,12.93
2022-10-19T18:17:25.552Z,53.93
2022-10-19T18:19:55.230Z,73.07
2022-10-19T18:22:22.758Z,65.57
2022-10-19T18:24:49.749Z,69.63
2022-10-19T18:27:16.294Z,72.20
2022-10-19T18:29:42.892Z,59.43
2022-10-19T18:32:11.600Z,69.00
2022-10-19T18:34:39.048Z,65.10
2022-10-19T18:37:07.724Z,51.20
2022-10-19T18:39:34.192Z,31.30
2022-10-19T18:42:01.009Z,35.30
2022-10-19T18:44:29.523Z,27.73
2022-10-19T18:46:58.052Z,27.33
2022-10-19T18:49:26.570Z,43.40
2022-10-19T18:51:55.428Z,46.30
2022-10-19T18:54:26.705Z,44.83
2022-10-19T18:56:54.707Z,78.57
2022-10-19T18:59:21.256Z,71.63
2022-10-19T19:01:48.374Z,63.83
2022-10-19T19:04:14.757Z,49.47
2022-10-19T19:06:41.547Z,53.27
2022-10-19T19:09:10.299Z,35.50
2022-10-19T19:11:40.390Z,25.40
2022-10-19T19:14:14.688Z,14.90
2022-10-19T19:16:43.268Z,13.97
2022-10-19T19:19:11.966Z,8.83
2022-10-19T19:21:41.243Z,11.60
2022-10-19T19:24:14.725Z,9.80
2022-10-19T19:26:46.105Z,14.63
2022-10-19T19:29:12.411Z,15.30
2022-10-19T19:31:39.632Z,25.93
2022-10-19T19:34:08.833Z,24.83
2022-10-19T19:36:37.545Z,28.40
2022-10-19T19:39:04.847Z,39.60
2022-10-19T19:41:35.332Z,38.67
2022-10-19T19:44:02.134Z,37.60
2022-10-19T19:46:29.225Z,50.33
2022-10-19T19:49:01.493Z,73.03
2022-10-19T19:51:29.816Z,37.00
2022-10-19T19:53:57.331Z,30.57
2022-10-19T19:56:25.676Z,30.57
2022-10-19T19:58:55.857Z,25.70
2022-10-19T20:01:22.956Z,25.20
2022-10-19T20:03:49.563Z,30.50
2022-10-19T20:06:20.738Z,32.90
2022-10-19T20:08:50.701Z,44.33
2022-10-19T20:11:21.286Z,45.30
2022-10-19T20:13:47.942Z,41.93
2022-10-19T20:16:23.820Z,47.57
2022-10-19T20:18:59.957Z,45.10
2022-10-19T20:21:32.882Z,47.83
2022-10-19T20:24:00.024Z,36.00
2022-10-19T20:26:28.829Z,31.07
2022-10-19T20:28:56.820Z,33.30
2022-10-19T20:31:24.223Z,41.33
2022-10-19T20:33:50.906Z,45.43
2022-10-19T20:36:23.842Z,37.33
2022-10-19T20:38:55.942Z,33.87
2022-10-19T20:41:24.742Z,29.93
2022-10-19T20:43:53.039Z,26.00
2022-10-19T20:46:22.698Z,22.27
2022-10-19T20:48:49.763Z,19.27
2022-10-19T20:51:18.439Z,24.40
2022-10-19T20:53:47.653Z,23.60
2022-10-19T20:56:17.274Z,29.13
2022-10-19T20:58:44.950Z,30.30
2022-10-19T21:01:18.553Z,38.40
2022-10-19T21:03:46.752Z,30.77
2022-10-19T21:06:13.666Z,29.47
2022-10-19T21:08:39.971Z,26.60
2022-10-19T21:11:40.144Z,31.23
2022-10-19T21:14:11.690Z,35.10
2022-10-19T21:16:39.092Z,27.20
2022-10-19T21:19:09.887Z,25.13
2022-10-19T21:21:42.941Z,22.83
2022-10-19T21:24:20.077Z,23.27
2022-10-19T21:26:47.706Z,24.40
2022-10-19T21:29:15.626Z,21.90
2022-10-19T21:31:47.866Z,20.50
2022-10-19T21:34:21.983Z,18.60
2022-10-19T21:36:48.762Z,20.80
2022-10-19T21:39:15.499Z,17.97
2022-10-19T21:41:41.956Z,17.67
2022-10-19T21:44:09.684Z,24.13
2022-10-19T21:46:36.178Z,24.97
2022-10-19T21:49:02.444Z,25.77
2022-10-19T21:51:54.735Z,28.37
2022-10-19T21:54:26.587Z,24.40
2022-10-19T21:56:54.955Z,34.57
2022-10-19T21:59:21.131Z,26.23
2022-10-19T22:01:47.800Z,27.00
2022-10-19T22:04:16.479Z,24.13
2022-10-19T22:06:43.988Z,25.97
2022-10-19T22:09:16.572Z,22.93
2022-10-19T22:11:43.014Z,29.83
2022-10-19T22:14:10.884Z,29.27
2022-10-19T22:16:38.615Z,22.60
2022-10-19T22:19:05.704Z,16.70
2022-10-19T22:21:33.898Z,19.10
2022-10-19T22:24:05.954Z,14.97
2022-10-19T22:26:38.771Z,19.83
2022-10-19T22:29:06.248Z,22.53
2022-10-19T22:31:34.169Z,21.37
2022-10-19T22:34:03.241Z,26.83
2022-10-19T22:36:30.262Z,23.97
2022-10-19T22:38:56.381Z,28.20
2022-10-19T22:42:19.019Z,36.63
2022-10-19T22:45:59.801Z,38.07
2022-10-19T22:49:40.813Z,36.83
2022-10-19T22:52:58.738Z,46.03
2022-10-19T22:55:25.139Z,48.27
2022-10-19T22:57:51.410Z,38.77
2022-10-19T23:00:17.838Z,31.50
2022-10-19T23:02:44.035Z,34.47
2022-10-19T23:05:10.452Z,23.07
2022-10-19T23:07:37.897Z,16.23
2022-10-19T23:10:05.404Z,19.57
2022-10-19T23:12:31.551Z,20.23
2022-10-19T23:14:57.876Z,25.87
2022-10-19T23:17:24.100Z,34.83
2022-10-19T23:19:50.472Z,29.87
2022-10-19T23:22:16.606Z,25.40
2022-10-19T23:24:42.986Z,35.03
2022-10-19T23:27:09.392Z,31.87
2022-10-19T23:29:35.827Z,30.33
2022-10-19T23:32:01.951Z,45.40
2022-10-19T23:34:28.399Z,36.50
2022-10-19T23:36:54.583Z,35.87
2022-10-19T23:39:20.947Z,32.80
2022-10-19T23:41:47.162Z,32.53
2022-10-19T23:44:13.523Z,34.90
2022-10-19T23:46:39.781Z,38.47
2022-10-19T23:49:06.130Z,32.80
2022-10-19T23:51:32.331Z,30.93
2022-10-19T23:53:58.854Z,34.63
2022-10-19T23:56:27.965Z,25.37
2022-10-19T23:58:55.253Z,20.97
